Time;durP1;ratioP1;P1;durP2;ratioP2;P2;SDS_P1;SDS_P2;PMS_P1;PMS_P2;Temp;Humidity;BMP_temperature;BMP_pressure;BME280_temperature;BME280_humidity;BME280_pressure;Samples;Min_cycle;Max_cycle;Signal;HPM_P1;HPM_P2
2022/03/10 00:02:21;;;;;;;7.13;3.85;;;;;;;9.11;97.27;100492.25;4996166;28;20033;-78
2022/03/10 00:04:46;;;;;;;8.00;3.90;;;;;;;9.04;98.40;100500.03;4996273;28;20474;-79
2022/03/10 00:07:12;;;;;;;9.85;3.60;;;;;;;9.06;98.20;100495.03;4966687;28;20079;-78
2022/03/10 00:09:40;;;;;;;7.22;3.30;;;;;;;9.05;98.69;100496.13;4965248;28;20030;-79
2022/03/10 00:12:06;;;;;;;5.95;3.10;;;;;;;9.05;99.11;100496.13;4977512;28;20057;-79
2022/03/10 00:14:32;;;;;;;5.63;3.20;;;;;;;9.03;98.92;100492.03;4964466;28;20057;-79
2022/03/10 00:16:57;;;;;;;6.88;3.25;;;;;;;9.03;99.51;100487.31;4975413;28;20030;-79
2022/03/10 00:19:23;;;;;;;8.98;3.22;;;;;;;9.03;99.45;100487.31;4983375;28;20049;-79
2022/03/10 00:21:48;;;;;;;8.43;3.33;;;;;;;9.04;99.55;100486.19;4984066;28;20041;-79
2022/03/10 00:24:15;;;;;;;8.10;3.42;;;;;;;9.05;99.85;100487.00;5002720;28;20026;-79
2022/03/10 00:26:41;;;;;;;7.60;2.95;;;;;;;9.05;99.45;100482.28;5008752;28;20026;-79
2022/03/10 00:29:07;;;;;;;6.97;2.95;;;;;;;9.05;100.00;100482.28;4996247;28;20041;-79
2022/03/10 00:31:32;;;;;;;7.30;3.28;;;;;;;9.07;100.00;100488.38;5003529;28;20026;-79
2022/03/10 00:33:58;;;;;;;5.72;3.30;;;;;;;9.09;100.00;100490.88;4999888;28;20034;-79
2022/03/10 00:36:24;;;;;;;7.70;3.17;;;;;;;9.10;100.00;100486.97;4966649;28;20029;-79
2022/03/10 00:38:50;;;;;;;6.15;2.95;;;;;;;9.11;99.82;100497.78;4965221;28;20063;-78
2022/03/10 00:41:15;;;;;;;6.00;2.80;;;;;;;9.11;98.95;100494.16;4987988;28;20045;-78
2022/03/10 00:43:41;;;;;;;7.10;2.45;;;;;;;9.12;98.72;100496.66;5008640;28;20050;-79
2022/03/10 00:46:06;;;;;;;5.57;2.55;;;;;;;9.12;98.41;100490.31;4977450;28;20027;-78
2022/03/10 00:48:32;;;;;;;6.53;2.85;;;;;;;9.13;98.73;100497.50;5007529;28;20084;-79
2022/03/10 00:50:58;;;;;;;5.22;2.35;;;;;;;9.13;98.68;100498.31;4983150;28;20080;-79
2022/03/10 00:53:24;;;;;;;6.90;2.70;;;;;;;9.15;99.20;100498.88;4998262;28;20088;-79
2022/03/10 00:55:49;;;;;;;7.07;2.60;;;;;;;9.16;99.21;100492.22;4969798;28;20150;-79
2022/03/10 00:58:15;;;;;;;6.10;2.30;;;;;;;9.16;98.99;100500.53;4994029;28;20051;-79
2022/03/10 01:00:40;;;;;;;6.00;2.10;;;;;;;9.20;99.82;100502.75;4978729;28;20549;-79
2022/03/10 01:03:06;;;;;;;4.45;2.40;;;;;;;9.19;99.81;100496.34;4983209;28;20477;-80
2022/03/10 01:05:32;;;;;;;5.15;2.45;;;;;;;9.21;100.00;100496.06;5024533;28;20026;-80
2022/03/10 01:08:00;;;;;;;6.03;2.65;;;;;;;9.23;99.96;100496.63;4968545;28;20036;-79
2022/03/10 01:10:26;;;;;;;4.63;2.47;;;;;;;9.24;100.00;100495.50;5016680;28;20037;-79
2022/03/10 01:12:52;;;;;;;5.25;2.60;;;;;;;9.23;99.84;100503.00;5014950;28;20026;-79
2022/03/10 01:15:19;;;;;;;4.32;2.50;;;;;;;9.24;100.00;100498.28;4963679;28;20069;-79
2022/03/10 01:17:45;;;;;;;5.70;2.17;;;;;;;9.24;100.00;100498.28;4978721;28;20026;-79
2022/03/10 01:20:10;;;;;;;7.32;2.53;;;;;;;9.24;100.00;100503.81;4979388;28;20058;-79
2022/03/10 01:22:36;;;;;;;6.22;2.47;;;;;;;9.26;100.00;100501.59;4966647;28;20041;-79
2022/03/10 01:25:03;;;;;;;6.70;2.70;;;;;;;9.25;100.00;100494.38;4992901;28;20085;-80
2022/03/10 01:27:29;;;;;;;4.68;2.15;;;;;;;9.25;100.00;100495.22;5001789;28;20038;-79
2022/03/10 01:29:54;;;;;;;6.68;2.30;;;;;;;9.26;100.00;100493.28;4973981;28;20030;-79
2022/03/10 01:32:20;;;;;;;4.85;2.63;;;;;;;9.26;100.00;100504.38;4964033;28;20093;-79
2022/03/10 01:34:45;;;;;;;7.93;2.38;;;;;;;9.26;99.67;100502.41;5005810;28;20030;-79
2022/03/10 01:37:11;;;;;;;5.32;2.80;;;;;;;9.23;99.74;100500.22;4982434;28;20033;-79
2022/03/10 01:39:36;;;;;;;5.03;2.53;;;;;;;9.23;99.86;100496.63;5021683;28;20045;-79
2022/03/10 01:42:06;;;;;;;8.32;2.72;;;;;;;9.22;99.69;100503.25;4995637;28;20030;-79
2022/03/10 01:44:35;;;;;;;6.07;2.40;;;;;;;9.18;99.40;100497.47;5004167;28;20026;-79
2022/03/10 01:47:01;;;;;;;11.43;2.85;;;;;;;9.16;99.58;100502.47;4994956;28;20030;-79
2022/03/10 01:49:27;;;;;;;5.57;2.42;;;;;;;9.12;99.10;100488.34;4986506;28;20021;-79
2022/03/10 01:51:53;;;;;;;5.35;2.50;;;;;;;9.06;98.89;100497.81;4979671;28;20034;-79
2022/03/10 01:54:19;;;;;;;4.75;2.28;;;;;;;9.03;98.97;100495.63;4978773;28;20023;-79
2022/03/10 01:56:44;;;;;;;5.63;2.38;;;;;;;8.97;98.50;100493.97;4998444;28;20083;-78
2022/03/10 01:59:10;;;;;;;9.18;2.85;;;;;;;8.93;99.31;100498.41;4966645;28;20037;-79
2022/03/10 02:01:36;;;;;;;7.28;2.33;;;;;;;8.88;99.55;100495.66;4977523;28;20032;-79
2022/03/10 02:04:02;;;;;;;6.03;2.50;;;;;;;8.79;98.87;100503.72;4985529;28;20030;-79
2022/03/10 02:06:28;;;;;;;4.68;2.58;;;;;;;8.73;98.68;100494.63;5016187;28;20371;-79
2022/03/10 02:11:38;;;;;;;5.75;2.50;;;;;;;8.70;99.73;100492.41;4983246;28;20038;-78
2022/03/10 02:17:19;;;;;;;7.15;2.95;;;;;;;8.63;99.48;100491.88;5016262;28;20026;-78
2022/03/10 02:19:32;;;;;;;4.07;2.30;;;;;;;8.53;99.94;100482.78;5006637;28;20061;-79
2022/03/10 02:22:06;;;;;;;5.65;2.42;;;;;;;8.52;99.96;100483.88;4984944;28;20033;-79
2022/03/10 02:24:32;;;;;;;6.90;2.53;;;;;;;8.48;99.63;100480.84;5002047;28;20033;-79
2022/03/10 02:26:57;;;;;;;4.50;2.60;;;;;;;8.43;99.60;100480.88;4979413;28;20478;-79
2022/03/10 02:29:23;;;;;;;6.65;2.70;;;;;;;8.38;99.84;100478.91;4985012;28;20030;-79
2022/03/10 02:31:48;;;;;;;8.52;2.47;;;;;;;8.37;99.56;100490.25;4966523;28;20037;-79
2022/03/10 02:34:14;;;;;;;8.10;2.85;;;;;;;8.29;99.77;100478.63;4985246;28;20037;-79
2022/03/10 02:36:39;;;;;;;7.53;2.78;;;;;;;8.28;100.00;100484.47;4953771;28;20475;-79
2022/03/10 02:39:05;;;;;;;8.63;3.13;;;;;;;8.25;99.96;100485.03;4984054;28;20034;-79
2022/03/10 02:41:30;;;;;;;4.88;2.85;;;;;;;8.22;99.94;100491.13;4973810;28;20021;-79
2022/03/10 02:43:56;;;;;;;7.70;2.53;;;;;;;8.19;100.00;100492.50;4999727;28;20026;-79
2022/03/10 02:46:21;;;;;;;8.40;2.70;;;;;;;8.18;100.00;100492.78;4994501;28;20081;-79
2022/03/10 02:48:47;;;;;;;5.22;2.45;;;;;;;8.14;100.00;100492.50;4968847;28;20673;-78
2022/03/10 02:51:13;;;;;;;6.38;2.70;;;;;;;8.13;100.00;100510.19;4985565;28;20033;-79
2022/03/10 02:53:38;;;;;;;5.05;2.30;;;;;;;8.11;99.69;100497.75;5016048;28;20034;-79
2022/03/10 02:56:04;;;;;;;6.15;2.63;;;;;;;8.07;99.49;100506.59;5001584;28;20084;-79
2022/03/10 02:58:29;;;;;;;5.30;2.40;;;;;;;8.04;99.53;100500.81;5001471;28;20088;-79
2022/03/10 03:00:55;;;;;;;6.80;2.50;;;;;;;8.01;99.69;100498.59;4988747;28;20034;-79
2022/03/10 03:03:20;;;;;;;5.88;2.55;;;;;;;7.98;99.50;100499.97;5005860;28;20034;-78
2022/03/10 03:05:46;;;;;;;7.22;2.75;;;;;;;7.95;99.72;100505.25;5025033;28;20034;-79
2022/03/10 03:08:11;;;;;;;4.95;2.80;;;;;;;7.92;99.58;100508.56;4986743;28;20035;-79
2022/03/10 03:10:37;;;;;;;8.35;2.70;;;;;;;7.89;99.90;100506.34;5001249;28;20077;-79
2022/03/10 03:13:02;;;;;;;7.03;3.00;;;;;;;7.86;99.44;100502.19;4990747;28;20093;-78
2022/03/10 03:15:28;;;;;;;4.78;2.70;;;;;;;7.84;99.92;100512.69;4982997;28;20100;-79
2022/03/10 03:17:54;;;;;;;6.32;3.05;;;;;;;7.79;100.00;100502.47;5005188;28;20041;-79
2022/03/10 03:20:19;;;;;;;4.63;2.90;;;;;;;7.78;100.00;100506.34;5018009;28;20050;-79
2022/03/10 03:22:45;;;;;;;7.25;3.10;;;;;;;7.77;100.00;100499.16;4984880;28;20030;-79
2022/03/10 03:25:12;;;;;;;6.93;3.00;;;;;;;7.79;100.00;100504.41;4987532;28;20030;-79
2022/03/10 03:27:38;;;;;;;8.20;3.35;;;;;;;7.77;100.00;100517.66;4978604;28;20028;-78
2022/03/10 03:30:05;;;;;;;8.85;3.50;;;;;;;7.74;100.00;100507.97;4997725;28;20030;-79
2022/03/10 03:32:31;;;;;;;8.70;2.88;;;;;;;7.75;100.00;100500.53;4975465;28;20031;-78
2022/03/10 03:34:57;;;;;;;6.75;3.47;;;;;;;7.73;100.00;100502.75;4983744;28;20041;-78
2022/03/10 03:37:22;;;;;;;9.93;3.25;;;;;;;7.72;100.00;100501.91;4990788;28;20026;-78
2022/03/10 03:39:48;;;;;;;6.97;3.55;;;;;;;7.70;100.00;100501.34;5000640;28;20109;-78
2022/03/10 03:42:14;;;;;;;6.70;3.67;;;;;;;7.71;100.00;100499.41;4991264;28;20034;-79
2022/03/10 03:44:39;;;;;;;10.15;3.83;;;;;;;7.67;100.00;100501.91;4988127;28;20391;-79
2022/03/10 03:47:05;;;;;;;7.93;4.07;;;;;;;7.65;100.00;100498.59;4987738;28;20034;-79
2022/03/10 03:49:30;;;;;;;8.10;4.30;;;;;;;7.66;100.00;100500.25;4984416;28;20034;-79
2022/03/10 03:51:56;;;;;;;7.10;3.33;;;;;;;7.66;100.00;100496.66;5003712;28;20030;-79
2022/03/10 03:54:21;;;;;;;6.75;3.30;;;;;;;7.62;100.00;100499.13;5016351;28;20030;-79
2022/03/10 03:56:47;;;;;;;7.35;3.80;;;;;;;7.60;100.00;100493.03;5018507;28;20037;-79
2022/03/10 03:59:12;;;;;;;8.88;3.78;;;;;;;7.56;100.00;100490.00;5004599;28;20038;-79
2022/03/10 04:01:38;;;;;;;8.93;4.65;;;;;;;7.58;100.00;100500.81;5006577;28;20023;-79
2022/03/10 04:04:04;;;;;;;7.05;3.83;;;;;;;7.56;100.00;100508.53;4979267;28;20030;-79
2022/03/10 04:06:29;;;;;;;10.45;4.57;;;;;;;7.52;100.00;100502.72;4988942;28;20052;-79
2022/03/10 04:08:55;;;;;;;8.90;4.57;;;;;;;7.51;100.00;100506.56;4983769;28;20033;-79
2022/03/10 04:11:21;;;;;;;8.98;4.53;;;;;;;7.51;100.00;100511.28;5000374;28;20030;-78
2022/03/10 04:13:46;;;;;;;9.20;3.88;;;;;;;7.49;100.00;100507.94;5017652;28;20030;-78
2022/03/10 04:16:12;;;;;;;7.55;4.60;;;;;;;7.47;100.00;100511.00;5004661;28;20027;-79
2022/03/10 04:18:37;;;;;;;10.60;4.30;;;;;;;7.46;100.00;100505.75;4982311;28;20052;-79
2022/03/10 04:21:03;;;;;;;6.72;3.92;;;;;;;7.42;100.00;100508.22;4995931;28;20471;-79
2022/03/10 04:23:28;;;;;;;7.22;4.40;;;;;;;7.42;100.00;100513.75;5020250;28;20056;-79
2022/03/10 04:25:54;;;;;;;11.07;4.60;;;;;;;7.43;100.00;100509.06;5011999;28;20026;-79
2022/03/10 04:28:20;;;;;;;8.80;4.57;;;;;;;7.39;100.00;100506.84;5014330;28;20030;-79
2022/03/10 04:30:46;;;;;;;9.00;3.85;;;;;;;7.39;100.00;100511.53;4983569;28;20064;-79
2022/03/10 04:33:12;;;;;;;7.85;4.53;;;;;;;7.35;100.00;100511.28;4997370;28;20420;-79
2022/03/10 04:35:37;;;;;;;10.60;4.70;;;;;;;7.34;100.00;100515.09;4996876;28;20034;-79
2022/03/10 04:38:03;;;;;;;9.43;4.53;;;;;;;7.34;100.00;100512.34;4999050;28;20025;-79
2022/03/10 04:40:29;;;;;;;6.22;3.90;;;;;;;7.33;100.00;100520.94;5004826;28;20540;-79
2022/03/10 04:42:54;;;;;;;9.73;4.72;;;;;;;7.29;100.00;100517.84;4964023;28;20030;-79
2022/03/10 04:45:21;;;;;;;7.45;4.35;;;;;;;7.28;100.00;100513.44;4976270;28;20112;-79
2022/03/10 04:47:46;;;;;;;8.02;4.43;;;;;;;7.26;100.00;100515.63;4980852;28;20452;-79
2022/03/10 04:50:13;;;;;;;7.60;4.20;;;;;;;7.23;100.00;100516.19;4980921;28;20027;-78
2022/03/10 04:52:38;;;;;;;7.32;4.35;;;;;;;7.22;100.00;100514.53;4988729;28;20123;-78
2022/03/10 04:55:04;;;;;;;9.95;5.03;;;;;;;7.21;100.00;100514.78;4964067;28;20038;-78
2022/03/10 04:57:30;;;;;;;7.78;4.30;;;;;;;7.17;100.00;100514.50;4966129;28;20023;-79
2022/03/10 04:59:55;;;;;;;12.38;4.45;;;;;;;7.16;100.00;100521.16;4983399;28;20026;-78
2022/03/10 05:02:21;;;;;;;8.48;4.07;;;;;;;7.09;100.00;100510.34;4982533;28;20033;-79
2022/03/10 05:04:46;;;;;;;8.55;4.07;;;;;;;7.10;100.00;100508.41;4996148;28;20092;-79
2022/03/10 05:07:12;;;;;;;5.53;4.40;;;;;;;7.06;100.00;100510.88;4981671;28;20041;-79
2022/03/10 05:09:37;;;;;;;11.20;4.60;;;;;;;7.01;100.00;100510.03;4981979;28;20037;-78
2022/03/10 05:12:03;;;;;;;13.68;5.95;;;;;;;7.00;100.00;100511.97;4976817;28;20037;-79
2022/03/10 05:14:29;;;;;;;10.80;5.05;;;;;;;6.98;100.00;100507.81;4972056;28;20044;-79
2022/03/10 05:16:55;;;;;;;11.27;5.43;;;;;;;6.98;100.00;100510.59;4987268;28;20398;-79
2022/03/10 05:19:20;;;;;;;9.00;5.03;;;;;;;6.96;100.00;100512.78;5019034;28;20406;-79
2022/03/10 05:21:46;;;;;;;10.50;5.75;;;;;;;6.93;100.00;100516.91;4997904;28;20034;-79
2022/03/10 05:24:12;;;;;;;11.80;5.43;;;;;;;6.90;100.00;100528.50;4981365;28;20684;-78
2022/03/10 05:26:38;;;;;;;9.50;5.65;;;;;;;6.90;100.00;100531.25;4997008;28;20096;-79
2022/03/10 05:29:03;;;;;;;12.45;5.60;;;;;;;6.85;100.00;100529.31;5004640;28;20459;-79
2022/03/10 05:31:29;;;;;;;11.48;6.75;;;;;;;6.88;100.00;100531.53;4964531;28;20049;-79
2022/03/10 05:33:54;;;;;;;11.80;6.60;;;;;;;6.85;100.00;100532.06;4972671;28;20117;-79
2022/03/10 05:36:20;;;;;;;11.30;6.55;;;;;;;6.85;100.00;100532.06;4969965;28;20029;-79
2022/03/10 05:38:45;;;;;;;10.07;6.60;;;;;;;6.84;100.00;100535.91;5004311;28;20045;-79
2022/03/10 05:41:11;;;;;;;8.07;6.10;;;;;;;6.81;100.00;100524.59;4980774;28;20026;-79
2022/03/10 05:43:36;;;;;;;12.35;6.93;;;;;;;6.82;100.00;100540.88;4983289;28;20050;-79
2022/03/10 05:46:02;;;;;;;9.88;6.22;;;;;;;6.81;100.00;100541.16;5014608;28;20026;-79
2022/03/10 05:48:28;;;;;;;13.10;7.00;;;;;;;6.80;100.00;100540.31;4985835;28;20025;-79
2022/03/10 05:50:53;;;;;;;12.38;7.05;;;;;;;6.79;100.00;100541.41;4968285;28;20037;-79
2022/03/10 05:53:19;;;;;;;13.77;7.38;;;;;;;6.78;100.00;100542.50;4980126;28;20112;-79
2022/03/10 05:55:45;;;;;;;11.73;7.53;;;;;;;6.78;100.00;100541.69;4998522;28;20049;-79
2022/03/10 05:58:13;;;;;;;9.30;6.80;;;;;;;6.78;100.00;100531.47;5005850;28;20034;-79
2022/03/10 06:00:39;;;;;;;13.27;7.15;;;;;;;6.78;100.00;100537.00;4963469;28;20263;-79
2022/03/10 06:03:06;;;;;;;10.60;6.97;;;;;;;6.79;100.00;100543.34;4998858;28;20036;-79
2022/03/10 06:05:33;;;;;;;12.93;7.75;;;;;;;6.79;100.00;100535.06;4983705;28;20610;-79
2022/03/10 06:07:58;;;;;;;10.10;7.35;;;;;;;6.78;100.00;100527.88;5026336;28;20029;-79
2022/03/10 06:10:24;;;;;;;10.43;6.90;;;;;;;6.81;100.00;100525.41;5020129;28;20041;-79
2022/03/10 06:12:49;;;;;;;11.00;7.22;;;;;;;6.83;100.00;100525.97;4999845;28;20037;-78
2022/03/10 06:15:15;;;;;;;11.88;8.18;;;;;;;6.85;100.00;100521.03;4982006;28;20045;-78
2022/03/10 06:17:41;;;;;;;9.18;6.43;;;;;;;6.86;100.00;100519.91;5007611;28;20023;-75
2022/03/10 06:20:08;;;;;;;8.15;5.82;;;;;;;6.88;100.00;100526.00;4989258;28;20197;-75
2022/03/10 06:22:33;;;;;;;12.00;7.15;;;;;;;6.90;100.00;100529.31;4996469;28;20132;-75
2022/03/10 06:24:59;;;;;;;13.15;6.97;;;;;;;6.91;100.00;100533.75;5017814;28;20030;-77
2022/03/10 06:27:24;;;;;;;12.95;6.80;;;;;;;6.93;100.00;100531.53;5007441;28;20030;-77
2022/03/10 06:29:50;;;;;;;12.77;7.50;;;;;;;6.96;100.00;100532.09;4976651;28;20045;-76
2022/03/10 06:32:17;;;;;;;11.93;7.10;;;;;;;6.99;100.00;100542.59;4952061;28;20022;-77
2022/03/10 06:34:42;;;;;;;12.07;6.68;;;;;;;7.02;100.00;100531.88;4984530;28;20030;-77
2022/03/10 06:37:08;;;;;;;9.95;6.55;;;;;;;7.05;100.00;100536.84;4985574;28;20045;-74
2022/03/10 06:39:34;;;;;;;10.82;7.10;;;;;;;7.08;100.00;100530.78;5015568;28;20029;-73
2022/03/10 06:42:00;;;;;;;10.70;6.88;;;;;;;7.09;100.00;100537.97;5023210;28;20660;-73
2022/03/10 06:44:25;;;;;;;10.57;7.28;;;;;;;7.12;100.00;100536.59;4993150;28;20026;-73
2022/03/10 06:46:51;;;;;;;13.32;7.50;;;;;;;7.12;100.00;100531.06;5010376;28;20037;-73
2022/03/10 06:49:17;;;;;;;10.18;7.30;;;;;;;7.13;100.00;100536.34;5005288;28;20111;-73
2022/03/10 06:51:42;;;;;;;12.77;7.70;;;;;;;7.17;100.00;100536.63;5010062;28;20038;-73
2022/03/10 06:54:08;;;;;;;10.93;7.15;;;;;;;7.19;100.00;100536.31;4994096;28;20046;-73
2022/03/10 06:56:34;;;;;;;11.68;8.27;;;;;;;7.20;100.00;100544.34;5001575;28;20029;-73
2022/03/10 06:59:00;;;;;;;10.98;7.30;;;;;;;7.23;100.00;100541.06;5021401;28;20057;-73
2022/03/10 07:01:25;;;;;;;11.10;7.55;;;;;;;7.25;100.00;100541.63;5004770;28;20034;-73
2022/03/10 07:03:51;;;;;;;15.15;7.18;;;;;;;7.28;100.00;100548.53;5003791;28;20037;-73
2022/03/10 07:06:17;;;;;;;11.43;7.90;;;;;;;7.29;100.00;100548.25;5037967;28;20033;-73
2022/03/10 07:08:43;;;;;;;10.82;6.93;;;;;;;7.31;100.00;100539.69;5018452;28;20036;-73
2022/03/10 07:11:08;;;;;;;13.07;7.32;;;;;;;7.35;100.00;100547.19;5019071;28;20030;-73
2022/03/10 07:13:35;;;;;;;13.23;8.40;;;;;;;7.39;100.00;100553.81;5001016;28;20042;-73
2022/03/10 07:16:02;;;;;;;14.50;7.30;;;;;;;7.41;100.00;100550.78;4999437;28;20061;-73
2022/03/10 07:18:27;;;;;;;14.52;8.23;;;;;;;7.44;100.00;100560.44;4988477;28;20042;-73
2022/03/10 07:20:53;;;;;;;11.40;7.93;;;;;;;7.47;100.00;100555.22;5001303;28;20394;-73
2022/03/10 07:23:18;;;;;;;13.13;8.18;;;;;;;7.50;100.00;100556.63;5018531;28;20040;-74
2022/03/10 07:25:44;;;;;;;11.95;8.27;;;;;;;7.55;100.00;100562.13;5018618;28;20033;-74
2022/03/10 07:28:10;;;;;;;10.88;8.02;;;;;;;7.58;100.00;100556.09;5018427;28;20038;-75
2022/03/10 07:30:35;;;;;;;12.13;7.82;;;;;;;7.60;100.00;100554.72;4978648;28;20093;-74
2022/03/10 07:33:01;;;;;;;10.55;7.25;;;;;;;7.65;100.00;100555.81;4968494;28;20555;-75
2022/03/10 07:35:27;;;;;;;13.95;7.85;;;;;;;7.67;100.00;100559.97;4975448;28;20046;-75
2022/03/10 07:37:54;;;;;;;10.48;7.57;;;;;;;7.73;100.00;100569.09;5016729;28;20491;-75
2022/03/10 07:40:20;;;;;;;11.43;7.38;;;;;;;7.76;100.00;100560.25;5009428;28;20052;-75
2022/03/10 07:42:46;;;;;;;10.25;7.22;;;;;;;7.80;100.00;100567.72;5018272;28;20030;-75
2022/03/10 07:45:12;;;;;;;11.82;8.00;;;;;;;7.84;100.00;100570.78;4990376;28;20026;-74
2022/03/10 07:47:37;;;;;;;12.55;7.75;;;;;;;7.87;100.00;100564.69;5015711;28;20038;-75
2022/03/10 07:50:05;;;;;;;12.95;8.40;;;;;;;7.91;100.00;100556.66;5033492;28;20025;-75
2022/03/10 07:52:30;;;;;;;12.60;7.88;;;;;;;7.95;100.00;100566.09;5017710;28;20042;-74
2022/03/10 07:54:55;;;;;;;12.15;7.47;;;;;;;7.97;100.00;100561.13;5019856;28;20037;-75
2022/03/10 07:57:21;;;;;;;12.20;7.80;;;;;;;8.02;100.00;100563.84;5005806;28;20038;-75
2022/03/10 07:59:47;;;;;;;12.90;8.18;;;;;;;8.06;100.00;100556.69;5007802;28;20053;-75
2022/03/10 08:02:13;;;;;;;13.10;7.97;;;;;;;8.12;100.00;100563.06;4996779;28;20101;-75
2022/03/10 08:04:39;;;;;;;10.80;7.95;;;;;;;8.16;100.00;100556.69;5000724;28;20076;-75
2022/03/10 08:07:05;;;;;;;11.77;8.18;;;;;;;8.23;100.00;100559.19;5021303;28;20525;-75
2022/03/10 08:09:31;;;;;;;12.95;8.05;;;;;;;8.29;100.00;100560.81;4997039;28;20034;-75
2022/03/10 08:11:56;;;;;;;12.77;7.38;;;;;;;8.33;100.00;100566.63;4997253;28;20392;-73
2022/03/10 08:14:21;;;;;;;13.23;7.97;;;;;;;8.39;100.00;100558.09;4957871;28;20018;-74
2022/03/10 08:16:47;;;;;;;13.25;8.05;;;;;;;8.43;100.00;100561.94;4983629;28;20092;-75
2022/03/10 08:19:12;;;;;;;12.93;8.52;;;;;;;8.49;100.00;100560.00;5000086;28;20061;-74
2022/03/10 08:21:38;;;;;;;14.07;9.15;;;;;;;8.53;100.00;100566.66;5005826;28;20041;-75
2022/03/10 08:24:04;;;;;;;13.43;8.32;;;;;;;8.58;100.00;100563.88;5019893;28;20108;-75
2022/03/10 08:26:30;;;;;;;12.32;9.02;;;;;;;8.60;100.00;100564.41;5024915;28;20026;-75
2022/03/10 08:28:55;;;;;;;14.38;7.88;;;;;;;8.65;100.00;100569.94;5017743;28;20033;-75
2022/03/10 08:31:21;;;;;;;13.02;8.90;;;;;;;8.70;100.00;100582.97;4999102;28;20037;-75
2022/03/10 08:33:47;;;;;;;12.13;8.55;;;;;;;8.71;100.00;100576.31;5006489;28;20062;-75
2022/03/10 08:36:13;;;;;;;12.48;8.43;;;;;;;8.75;100.00;100566.34;4964385;28;20026;-75
2022/03/10 08:38:39;;;;;;;13.95;8.93;;;;;;;8.78;100.00;100574.09;4970795;28;20502;-75
2022/03/10 08:41:04;;;;;;;15.25;9.10;;;;;;;8.79;100.00;100569.38;5025823;28;20062;-74
2022/03/10 08:43:31;;;;;;;13.98;8.85;;;;;;;8.83;100.00;100576.84;4974159;28;20057;-75
2022/03/10 08:45:57;;;;;;;13.45;8.10;;;;;;;8.83;100.00;100578.75;4999346;28;20018;-75
2022/03/10 08:48:22;;;;;;;13.18;8.55;;;;;;;8.86;100.00;100572.66;5021175;28;20033;-74
2022/03/10 08:50:48;;;;;;;12.88;9.07;;;;;;;8.88;100.00;100568.50;4989594;28;20026;-74
2022/03/10 08:53:14;;;;;;;11.80;8.25;;;;;;;8.91;100.00;100569.88;4999249;28;20030;-74
2022/03/10 08:55:39;;;;;;;16.25;8.65;;;;;;;8.95;100.00;100571.00;4999352;28;20032;-74
2022/03/10 08:58:05;;;;;;;12.20;8.20;;;;;;;8.98;100.00;100572.38;5017018;28;20026;-74
2022/03/10 09:00:30;;;;;;;12.02;8.98;;;;;;;8.99;100.00;100572.06;4982041;28;20528;-74
2022/03/10 09:02:56;;;;;;;13.80;8.80;;;;;;;9.03;100.00;100573.19;4998155;28;20064;-74
2022/03/10 09:05:22;;;;;;;12.57;8.48;;;;;;;9.08;100.00;100573.16;5004853;28;20026;-75
2022/03/10 09:07:48;;;;;;;12.48;9.00;;;;;;;9.13;100.00;100569.53;5021992;28;20030;-74
2022/03/10 09:10:13;;;;;;;14.32;8.60;;;;;;;9.16;100.00;100575.34;4952980;28;20029;-74
2022/03/10 09:12:39;;;;;;;14.32;8.48;;;;;;;9.20;100.00;100569.25;5016818;28;20099;-74
2022/03/10 09:15:05;;;;;;;12.15;8.23;;;;;;;9.24;100.00;100573.91;5001363;28;20030;-74
2022/03/10 09:17:31;;;;;;;13.25;8.40;;;;;;;9.28;100.00;100577.78;5002893;28;20068;-74
2022/03/10 09:19:56;;;;;;;10.48;8.25;;;;;;;9.32;100.00;100567.78;5022851;28;20058;-74
2022/03/10 09:22:23;;;;;;;12.63;8.85;;;;;;;9.37;100.00;100575.25;4988369;28;20037;-74
2022/03/10 09:24:48;;;;;;;14.25;8.65;;;;;;;9.40;100.00;100574.69;5015889;28;20026;-74
2022/03/10 09:27:14;;;;;;;12.48;8.38;;;;;;;9.45;100.00;100568.28;5016552;28;20049;-75
2022/03/10 09:29:39;;;;;;;11.73;8.10;;;;;;;9.51;100.00;100567.16;4999028;28;20502;-74
2022/03/10 09:32:06;;;;;;;12.30;8.48;;;;;;;9.53;100.00;100570.47;4983074;28;20058;-74
2022/03/10 09:34:31;;;;;;;12.73;8.70;;;;;;;9.58;100.00;100565.72;5016425;28;20038;-74
2022/03/10 09:36:57;;;;;;;13.00;8.70;;;;;;;9.60;100.00;100569.03;4999050;28;20038;-74
2022/03/10 09:39:22;;;;;;;11.93;8.45;;;;;;;9.62;100.00;100563.19;5016191;28;20482;-75
2022/03/10 09:41:48;;;;;;;13.60;9.35;;;;;;;9.65;100.00;100548.75;5018540;28;20036;-75
2022/03/10 09:44:17;;;;;;;16.40;9.15;;;;;;;9.71;100.00;100549.56;5002680;28;20022;-76
2022/03/10 09:46:42;;;;;;;13.73;8.85;;;;;;;9.76;100.00;100555.06;5021971;28;20134;-76
2022/03/10 09:49:09;;;;;;;15.90;9.48;;;;;;;9.79;100.00;100548.94;4978856;28;20026;-74
2022/03/10 09:51:34;;;;;;;13.70;9.18;;;;;;;9.87;100.00;100555.84;5021905;28;20027;-74
2022/03/10 09:54:00;;;;;;;13.48;8.55;;;;;;;9.91;100.00;100557.72;5012366;28;20034;-75
2022/03/10 09:56:25;;;;;;;15.50;9.60;;;;;;;9.95;100.00;100558.81;5016264;28;20026;-75
2022/03/10 09:58:50;;;;;;;15.43;9.05;;;;;;;10.02;100.00;100559.31;5013237;28;20022;-75
2022/03/10 10:01:16;;;;;;;13.52;8.68;;;;;;;10.10;100.00;100560.66;4998608;28;20033;-75
2022/03/10 10:03:41;;;;;;;12.90;8.82;;;;;;;10.18;100.00;100564.75;5001956;28;20026;-75
2022/03/10 10:06:07;;;;;;;13.73;8.93;;;;;;;10.24;100.00;100560.81;5002142;28;20532;-75
2022/03/10 10:08:34;;;;;;;13.32;8.88;;;;;;;10.29;100.00;100555.25;5000335;28;20026;-75
2022/03/10 10:11:00;;;;;;;11.82;8.18;;;;;;;10.34;100.00;100552.44;5019900;28;20041;-75
2022/03/10 10:13:52;;;;;;;13.23;8.35;;;;;;;10.39;100.00;100549.63;4982255;28;20038;-75
2022/03/10 10:16:17;;;;;;;16.63;9.63;;;;;;;10.43;100.00;100542.34;5006342;28;20517;-75
2022/03/10 10:18:43;;;;;;;14.85;8.20;;;;;;;10.51;99.77;100554.78;5002803;28;20046;-75
2022/03/10 10:21:09;;;;;;;12.27;8.20;;;;;;;10.53;99.44;100552.53;5021044;28;20368;-75
2022/03/10 10:23:35;;;;;;;14.65;9.00;;;;;;;10.57;99.69;100558.31;5015426;28;20449;-75
2022/03/10 10:26:02;;;;;;;14.38;9.55;;;;;;;10.57;99.39;100558.31;4973203;28;20454;-75
2022/03/10 10:28:31;;;;;;;14.27;8.90;;;;;;;10.60;99.45;100552.19;4982893;28;20030;-75
2022/03/10 10:31:11;;;;;;;14.43;9.10;;;;;;;10.60;99.11;100557.75;4996286;28;20030;-75
2022/03/10 10:33:38;;;;;;;13.85;8.57;;;;;;;10.59;98.93;100547.75;5002053;28;20030;-75
2022/03/10 10:36:24;;;;;;;14.25;9.98;;;;;;;10.58;99.24;100554.41;5005737;28;20149;-75
2022/03/10 10:38:57;;;;;;;14.98;10.02;;;;;;;10.57;99.44;100547.22;5000342;28;20041;-75
2022/03/10 10:41:27;;;;;;;16.23;10.85;;;;;;;10.55;99.67;100541.94;4998852;28;20030;-75
2022/03/10 10:43:58;;;;;;;19.58;11.13;;;;;;;10.54;99.62;100539.47;5028862;28;20034;-75
2022/03/10 10:46:34;;;;;;;14.05;9.82;;;;;;;10.52;100.00;100546.13;5019462;28;20026;-75
2022/03/10 10:49:04;;;;;;;18.40;10.68;;;;;;;10.50;100.00;100540.06;5027150;28;20038;-75
2022/03/10 10:51:39;;;;;;;14.38;10.50;;;;;;;10.50;100.00;100536.44;5019226;28;20030;-75
2022/03/10 10:54:09;;;;;;;17.15;10.57;;;;;;;10.49;100.00;100535.63;5018778;28;20068;-75
2022/03/10 10:56:35;;;;;;;18.63;11.05;;;;;;;10.48;100.00;100525.63;5001828;28;20462;-75
2022/03/10 10:59:02;;;;;;;17.05;10.70;;;;;;;10.50;100.00;100525.31;4985359;28;20033;-75
2022/03/10 11:01:29;;;;;;;18.55;10.27;;;;;;;10.49;100.00;100535.63;5002523;28;20065;-75
2022/03/10 11:03:55;;;;;;;17.35;10.63;;;;;;;10.49;100.00;100524.50;5021499;28;20026;-75
2022/03/10 11:06:21;;;;;;;18.15;10.40;;;;;;;10.49;100.00;100524.50;5015186;28;20030;-75
2022/03/10 11:08:46;;;;;;;15.63;10.38;;;;;;;10.50;100.00;100522.56;5017737;28;20033;-74
2022/03/10 11:11:11;;;;;;;15.55;10.30;;;;;;;10.51;100.00;100527.00;5023918;28;20077;-75
2022/03/10 11:13:37;;;;;;;17.77;10.95;;;;;;;10.51;100.00;100527.81;5012208;28;20545;-75
2022/03/10 11:16:03;;;;;;;15.90;10.60;;;;;;;10.51;100.00;100527.81;4984959;28;20029;-75
2022/03/10 11:18:28;;;;;;;21.13;11.15;;;;;;;10.53;100.00;100527.53;5001130;28;20057;-75
2022/03/10 11:21:02;;;;;;;21.55;11.25;;;;;;;10.54;100.00;100525.59;5024103;28;20093;-75
2022/03/10 11:23:50;;;;;;;18.13;11.63;;;;;;;10.55;100.00;100528.06;5003341;28;20058;-75